Silver Emily — V7FZ5 — position and weather

sailwx.info

Track history (hours):
 
Tides and Currents Weather Stations Pressure Air Temp Water Temp Dewpoint Dewpoint Depression Visibility Wind Speed Wind Dir Waves Ship Positions

Silver Emily

Last reported at 2018-Apr-11 21:51 UTC. Time now 2018-Apr-20 02:52 UTC.
Position N 01°19' E 103°20'.
Warning: this ship's position is 8 days out of date.

Length 183 m; draft 11 m.

Type: Tanker. MMSI: 538005680.

Date/timePositionNaut miles runAvg speedWind from/ knotsBaromVisibWave heightAir tempDewpointWater temp
2018-Apr-11 21:51N 01°19' E 103°20'512.4
2018-Apr-11 21:27N 01°15' E 103°24'612.2
2018-Apr-11 20:58N 01°13' E 103°30'612.3
2018-Apr-11 20:30N 01°12' E 103°35'612.1
2018-Apr-11 19:59N 01°10' E 103°41'510.1
2018-Apr-11 19:29N 01°10' E 103°46'612.3
2018-Apr-11 19:00N 01°12' E 103°51'611.0
2018-Apr-11 18:29N 01°14' E 103°57'511.2
2018-Apr-11 17:59N 01°16' E 104°02'2 0.2
2018-Apr-11 07:37N 01°18' E 104°03'0 0.1
2018-Apr-11 06:07N 01°18' E 104°04'0 0.0
2018-Apr-11 05:48N 01°18' E 104°04'0 0.1
2018-Apr-11 05:20N 01°18' E 104°04'0 0.0
2018-Apr-11 04:56N 01°18' E 104°04'0 0.1
2018-Apr-11 04:30N 01°18' E 104°04'0 0.0
2018-Apr-11 03:59N 01°18' E 104°04'0 0.5
2018-Apr-11 03:30N 01°18' E 104°04'3 5.1
2018-Apr-11 02:58N 01°18' E 104°07'  
Track history (hours):
 
Tides and Currents Weather Stations Pressure Air Temp Water Temp Dewpoint Dewpoint Depression Visibility Wind Speed Wind Dir Waves Ship Positions

Silver Emily

Last reported at 2018-Apr-11 21:51 UTC. Time now 2018-Apr-20 02:52 UTC.
Position N 01°19' E 103°20'.
Warning: this ship's position is 8 days out of date.

Length 183 m; draft 11 m.

Type: Tanker. MMSI: 538005680.

Date/timePositionNaut miles runAvg speedWind from/ knotsBaromVisibWave heightAir tempDewpointWater temp
2018-Apr-11 21:51N 01°19' E 103°20'512.4
2018-Apr-11 21:27N 01°15' E 103°24'612.2
2018-Apr-11 20:58N 01°13' E 103°30'612.3
2018-Apr-11 20:30N 01°12' E 103°35'612.1
2018-Apr-11 19:59N 01°10' E 103°41'510.1
2018-Apr-11 19:29N 01°10' E 103°46'612.3
2018-Apr-11 19:00N 01°12' E 103°51'611.0
2018-Apr-11 18:29N 01°14' E 103°57'511.2
2018-Apr-11 17:59N 01°16' E 104°02'2 0.2
2018-Apr-11 07:37N 01°18' E 104°03'0 0.1
2018-Apr-11 06:07N 01°18' E 104°04'0 0.0
2018-Apr-11 05:48N 01°18' E 104°04'0 0.1
2018-Apr-11 05:20N 01°18' E 104°04'0 0.0
2018-Apr-11 04:56N 01°18' E 104°04'0 0.1
2018-Apr-11 04:30N 01°18' E 104°04'0 0.0
2018-Apr-11 03:59N 01°18' E 104°04'0 0.5
2018-Apr-11 03:30N 01°18' E 104°04'3 5.1
2018-Apr-11 02:58N 01°18' E 104°07'  

Dump ship's entire track history